createdAt,value
2023-12-23T19:13:43.701Z,99210.88
2023-12-23T19:14:18.049Z,99203.97
2023-12-23T19:14:51.911Z,99211.78
2023-12-23T19:15:25.509Z,99206.56
2023-12-23T19:15:59.124Z,99214.38
2023-12-23T19:16:35.431Z,99209.22
2023-12-23T19:17:08.937Z,99207.53
2023-12-23T19:17:47.471Z,99214.47
2023-12-23T19:18:22.209Z,99216.22
2023-12-23T19:18:55.619Z,99217.03
2023-12-23T19:19:28.981Z,99213.63
2023-12-23T19:20:04.306Z,99214.44
2023-12-23T19:20:38.218Z,99213.53
2023-12-23T19:21:11.649Z,99209.22
2023-12-23T19:21:45.608Z,99206.66
2023-12-23T19:22:23.499Z,99216.13
2023-12-23T19:22:58.674Z,99211.06
2023-12-23T19:23:33.054Z,99216.22
2023-12-23T19:24:08.007Z,99210.94
2023-12-23T19:24:41.343Z,99221.34
2023-12-23T19:25:18.098Z,99219.69
2023-12-23T19:25:51.752Z,99223.94
2023-12-23T19:26:28.857Z,99219.59
2023-12-23T19:27:05.886Z,99213.56
2023-12-23T19:27:39.493Z,99226.53
2023-12-23T19:28:12.871Z,99223.94
2023-12-23T19:28:47.069Z,99221.41
2023-12-23T19:29:20.757Z,99228.25
2023-12-23T19:29:57.217Z,99224.78
2023-12-23T19:30:30.845Z,99226.47
2023-12-23T19:31:05.780Z,99225.63
2023-12-23T19:31:45.756Z,99223.03
2023-12-23T19:32:22.727Z,99220.41
2023-12-23T19:32:56.804Z,99226.53
2023-12-23T19:33:31.009Z,99233.50
2023-12-23T19:34:07.745Z,99231.69
2023-12-23T19:34:43.776Z,99236.84
2023-12-23T19:35:19.414Z,99232.53
2023-12-23T19:35:53.137Z,99230.84
2023-12-23T19:36:26.738Z,99233.38
2023-12-23T19:37:00.021Z,99231.69
2023-12-23T19:37:33.662Z,99232.53
2023-12-23T19:38:07.342Z,99238.59
2023-12-23T19:38:40.771Z,99240.44
2023-12-23T19:39:14.917Z,99233.59
2023-12-23T19:39:59.207Z,99237.16
2023-12-23T19:40:41.252Z,99242.16
2023-12-23T19:41:15.629Z,99242.09
2023-12-23T19:41:49.125Z,99252.50
2023-12-23T19:42:22.874Z,99248.94
2023-12-23T19:42:59.141Z,99245.44
2023-12-23T19:43:32.762Z,99249.00
2023-12-23T19:44:06.111Z,99248.09
2023-12-23T19:44:39.454Z,99256.75
2023-12-23T19:45:14.994Z,99254.19
2023-12-23T19:45:48.408Z,99248.94
2023-12-23T19:46:21.989Z,99254.09
2023-12-23T19:46:55.650Z,99260.16
2023-12-23T19:47:29.099Z,99255.78
2023-12-23T19:48:07.536Z,99256.56
2023-12-23T19:48:41.342Z,99260.91
2023-12-23T19:49:18.225Z,99262.66
2023-12-23T19:49:51.643Z,99254.00
2023-12-23T19:50:25.562Z,99254.91
2023-12-23T19:51:02.116Z,99263.63
2023-12-23T19:51:35.761Z,99261.00
2023-12-23T19:52:10.269Z,99259.22
2023-12-23T19:52:43.806Z,99257.44
2023-12-23T19:53:17.486Z,99260.84
2023-12-23T19:53:52.084Z,99264.34
2023-12-23T19:54:25.737Z,99271.22
2023-12-23T19:54:59.333Z,99278.06
2023-12-23T19:55:32.889Z,99267.66
2023-12-23T19:56:07.569Z,99262.44
2023-12-23T19:56:41.342Z,99260.81
2023-12-23T19:57:17.880Z,99257.31
2023-12-23T19:57:51.255Z,99262.50
2023-12-23T19:58:27.179Z,99261.59
2023-12-23T19:59:03.403Z,99268.50
2023-12-23T19:59:37.196Z,99274.56
2023-12-23T20:00:11.270Z,99269.34
2023-12-23T20:00:47.816Z,99267.56
2023-12-23T20:01:21.196Z,99272.78
2023-12-23T20:01:54.819Z,99268.41
2023-12-23T20:02:28.545Z,99272.72
2023-12-23T20:03:02.062Z,99273.59
2023-12-23T20:03:41.270Z,99275.28
2023-12-23T20:04:16.368Z,99272.72
2023-12-23T20:04:50.463Z,99271.81
2023-12-23T20:05:26.960Z,99274.34
2023-12-23T20:06:00.406Z,99273.50
2023-12-23T20:06:37.309Z,99266.66
2023-12-23T20:07:12.638Z,99264.84
2023-12-23T20:07:46.432Z,99258.84
2023-12-23T20:08:20.013Z,99264.00
2023-12-23T20:08:53.344Z,99268.31
2023-12-23T20:09:26.786Z,99267.34
2023-12-23T20:10:00.101Z,99276.00
2023-12-23T20:10:33.867Z,99281.22
2023-12-23T20:11:07.421Z,99273.31
2023-12-23T20:11:42.643Z,99271.50
2023-12-23T20:12:18.952Z,99273.19
2023-12-23T20:12:53.333Z,99283.66
2023-12-23T20:13:29.853Z,99279.25
2023-12-23T20:14:04.016Z,99278.41
2023-12-23T20:14:40.188Z,99271.44
2023-12-23T20:15:14.883Z,99277.50
2023-12-23T20:15:49.256Z,99268.84
2023-12-23T20:16:24.858Z,99272.28
2023-12-23T20:16:58.288Z,99279.19
2023-12-23T20:17:38.079Z,99277.56
2023-12-23T20:18:11.737Z,99275.78
2023-12-23T20:18:48.049Z,99274.00
2023-12-23T20:19:21.645Z,99280.03
2023-12-23T20:19:55.335Z,99289.63
2023-12-23T20:20:29.050Z,99289.63
2023-12-23T20:21:04.275Z,99292.22
2023-12-23T20:21:37.896Z,99296.53
2023-12-23T20:22:14.899Z,99300.81
2023-12-23T20:22:51.196Z,99300.03
2023-12-23T20:23:24.867Z,99298.28
2023-12-23T20:23:58.314Z,99297.44
2023-12-23T20:24:32.894Z,99307.81
2023-12-23T20:25:08.036Z,99301.88
2023-12-23T20:25:41.677Z,99303.59
2023-12-23T20:26:21.036Z,99306.13
2023-12-23T20:26:55.752Z,99305.25
2023-12-23T20:27:29.441Z,99299.13
2023-12-23T20:28:02.962Z,99305.25
2023-12-23T20:28:36.272Z,99306.19
2023-12-23T20:29:09.614Z,99296.69
2023-12-23T20:29:43.274Z,99302.69
2023-12-23T20:30:21.181Z,99307.16
2023-12-23T20:30:55.949Z,99308.84
2023-12-23T20:31:31.957Z,99306.19
2023-12-23T20:32:06.142Z,99310.44
2023-12-23T20:32:39.934Z,99303.53
2023-12-23T20:33:15.074Z,99307.91
2023-12-23T20:33:48.554Z,99306.19
2023-12-23T20:34:22.065Z,99303.53
2023-12-23T20:34:55.830Z,99301.84
2023-12-23T20:35:29.386Z,99293.13
2023-12-23T20:36:04.420Z,99306.13
2023-12-23T20:36:47.021Z,99305.38
2023-12-23T20:37:20.705Z,99303.69
2023-12-23T20:37:54.502Z,99300.19
2023-12-23T20:38:29.665Z,99304.50
2023-12-23T20:39:03.431Z,99309.63
2023-12-23T20:39:36.814Z,99305.31
2023-12-23T20:40:10.805Z,99310.50
2023-12-23T20:40:44.150Z,99315.81
2023-12-23T20:41:17.884Z,99316.69
2023-12-23T20:41:51.233Z,99311.50
2023-12-23T20:42:25.883Z,99316.69
2023-12-23T20:42:59.386Z,99311.41
2023-12-23T20:43:32.994Z,99314.84
2023-12-23T20:44:08.051Z,99324.44
2023-12-23T20:44:41.908Z,99326.28
2023-12-23T20:45:16.408Z,99332.28
2023-12-23T20:45:49.688Z,99323.50
2023-12-23T20:46:23.055Z,99320.06
2023-12-23T20:46:58.389Z,99320.16
2023-12-23T20:47:31.990Z,99324.50
2023-12-23T20:48:05.705Z,99324.44
2023-12-23T20:48:42.297Z,99324.44
2023-12-23T20:49:16.579Z,99329.56
2023-12-23T20:49:50.425Z,99331.38
2023-12-23T20:50:27.545Z,99331.28
2023-12-23T20:51:00.953Z,99326.06
2023-12-23T20:51:36.232Z,99330.47
2023-12-23T20:52:09.581Z,99329.53
2023-12-23T20:52:42.962Z,99334.72
2023-12-23T20:53:17.232Z,99333.00
2023-12-23T20:53:51.866Z,99333.00
2023-12-23T20:54:25.740Z,99338.19
2023-12-23T20:54:59.284Z,99339.03
2023-12-23T20:55:34.438Z,99333.06
2023-12-23T20:56:09.210Z,99334.78
2023-12-23T20:56:42.995Z,99337.38
2023-12-23T20:57:16.913Z,99339.09
2023-12-23T20:57:50.190Z,99339.03
2023-12-23T20:58:23.849Z,99339.03
2023-12-23T20:58:57.593Z,99337.34
2023-12-23T20:59:31.415Z,99339.94
2023-12-23T21:00:05.625Z,99334.72
2023-12-23T21:00:41.488Z,99345.06
2023-12-23T21:01:15.801Z,99342.50
2023-12-23T21:01:52.087Z,99340.78
2023-12-23T21:02:25.652Z,99331.22
2023-12-23T21:03:00.641Z,99343.34
2023-12-23T21:03:34.014Z,99343.34
2023-12-23T21:04:08.585Z,99341.53
2023-12-23T21:04:41.886Z,99339.88
2023-12-23T21:05:16.243Z,99346.84
2023-12-23T21:05:49.779Z,99338.19
2023-12-23T21:06:24.150Z,99341.63
2023-12-23T21:06:57.883Z,99341.63
2023-12-23T21:07:31.386Z,99345.94
2023-12-23T21:08:05.511Z,99345.06
2023-12-23T21:08:39.124Z,99345.13
2023-12-23T21:09:12.691Z,99350.25
2023-12-23T21:09:46.413Z,99348.56
2023-12-23T21:10:20.071Z,99350.25
2023-12-23T21:10:53.350Z,99348.56
2023-12-23T21:11:26.914Z,99360.69
2023-12-23T21:12:00.578Z,99352.84
2023-12-23T21:12:35.344Z,99362.38
2023-12-23T21:13:08.891Z,99361.50
2023-12-23T21:13:49.433Z,99357.19
2023-12-23T21:14:23.040Z,99365.88
2023-12-23T21:14:56.618Z,99365.19
2023-12-23T21:15:30.026Z,99371.25
2023-12-23T21:16:03.361Z,99367.69
2023-12-23T21:16:37.927Z,99369.38
2023-12-23T21:17:11.529Z,99371.19
2023-12-23T21:17:45.178Z,99372.94
2023-12-23T21:18:21.775Z,99373.00
2023-12-23T21:18:57.746Z,99369.44
2023-12-23T21:19:33.987Z,99374.66
2023-12-23T21:20:08.331Z,99374.78
2023-12-23T21:20:41.579Z,99374.75
2023-12-23T21:21:15.983Z,99379.84
2023-12-23T21:21:49.362Z,99378.16
2023-12-23T21:22:25.789Z,99383.34
2023-12-23T21:23:02.243Z,99382.50
2023-12-23T21:23:35.882Z,99371.19
2023-12-23T21:24:12.199Z,99377.16
2023-12-23T21:24:45.829Z,99374.53
2023-12-23T21:25:19.204Z,99380.59
2023-12-23T21:25:55.589Z,99384.97
2023-12-23T21:26:29.332Z,99381.50
2023-12-23T21:27:02.983Z,99376.31
2023-12-23T21:27:37.514Z,99373.63
2023-12-23T21:28:11.093Z,99381.41
2023-12-23T21:28:44.451Z,99388.38
2023-12-23T21:29:17.807Z,99386.66
2023-12-23T21:29:51.954Z,99382.34
2023-12-23T21:30:26.769Z,99384.97
2023-12-23T21:31:02.467Z,99395.38
2023-12-23T21:31:35.897Z,99384.06
2023-12-23T21:32:13.677Z,99384.97
2023-12-23T21:32:51.947Z,99397.13
2023-12-23T21:33:27.470Z,99392.72
2023-12-23T21:34:04.051Z,99397.03
2023-12-23T21:34:37.398Z,99400.50
2023-12-23T21:35:11.432Z,99397.88
2023-12-23T21:35:49.800Z,99402.38
2023-12-23T21:36:23.067Z,99407.75
2023-12-23T21:36:59.984Z,99412.84
2023-12-23T21:37:33.469Z,99400.81
2023-12-23T21:38:07.196Z,99410.25
2023-12-23T21:38:42.014Z,99406.75
2023-12-23T21:39:18.452Z,99400.63
2023-12-23T21:39:54.478Z,99406.66
2023-12-23T21:40:27.816Z,99413.66
2023-12-23T21:41:01.352Z,99413.66
2023-12-23T21:41:37.668Z,99411.00
2023-12-23T21:42:11.253Z,99412.72
2023-12-23T21:42:47.521Z,99410.16
2023-12-23T21:43:24.371Z,99408.50
2023-12-23T21:43:57.747Z,99408.41
2023-12-23T21:44:34.592Z,99412.72
2023-12-23T21:45:10.823Z,99407.44
2023-12-23T21:45:44.806Z,99406.50
2023-12-23T21:46:21.030Z,99407.63
2023-12-23T21:46:58.279Z,99405.13
2023-12-23T21:47:32.303Z,99408.50
2023-12-23T21:48:06.445Z,99406.66
2023-12-23T21:48:40.272Z,99407.44
2023-12-23T21:49:16.155Z,99405.69
2023-12-23T21:49:50.899Z,99398.84
2023-12-23T21:50:24.519Z,99408.31
2023-12-23T21:50:57.916Z,99403.94
2023-12-23T21:51:31.555Z,99409.00
2023-12-23T21:52:05.578Z,99405.56
2023-12-23T21:52:45.784Z,99405.59
2023-12-23T21:53:19.471Z,99410.81
2023-12-23T21:53:54.296Z,99404.69
2023-12-23T21:54:28.301Z,99409.91
2023-12-23T21:55:02.861Z,99403.91
2023-12-23T21:55:36.414Z,99409.00
2023-12-23T21:56:09.963Z,99415.06
2023-12-23T21:56:43.616Z,99420.28
2023-12-23T21:57:19.993Z,99432.41
2023-12-23T21:57:54.839Z,99424.56
2023-12-23T21:58:28.351Z,99424.50
2023-12-23T21:59:02.390Z,99427.09
2023-12-23T21:59:36.021Z,99434.84
2023-12-23T22:00:10.398Z,99434.84
2023-12-23T22:00:43.867Z,99435.75
2023-12-23T22:01:18.842Z,99428.00
2023-12-23T22:01:52.259Z,99434.19
2023-12-23T22:02:25.761Z,99431.56
2023-12-23T22:03:02.410Z,99428.94
2023-12-23T22:03:36.254Z,99433.34
2023-12-23T22:04:09.914Z,99429.97
2023-12-23T22:04:43.433Z,99433.41
2023-12-23T22:05:16.834Z,99432.44
2023-12-23T22:05:53.749Z,99429.84
2023-12-23T22:06:27.481Z,99427.38
2023-12-23T22:07:03.880Z,99426.44
2023-12-23T22:07:37.434Z,99436.75
2023-12-23T22:08:10.762Z,99440.22
2023-12-23T22:08:44.081Z,99435.81
2023-12-23T22:09:17.461Z,99436.72
2023-12-23T22:09:54.162Z,99443.66
2023-12-23T22:10:27.413Z,99438.59
2023-12-23T22:11:01.107Z,99442.06
2023-12-23T22:11:35.573Z,99440.22
2023-12-23T22:12:09.547Z,99435.81
2023-12-23T22:12:43.099Z,99440.22
2023-12-23T22:13:18.787Z,99436.84
2023-12-23T22:13:52.481Z,99442.00
2023-12-23T22:14:26.336Z,99448.97
2023-12-23T22:14:59.853Z,99447.22
2023-12-23T22:15:34.913Z,99442.06
2023-12-23T22:16:08.357Z,99442.91
2023-12-23T22:16:41.993Z,99446.38
2023-12-23T22:17:16.478Z,99448.91
2023-12-23T22:17:50.077Z,99452.38
2023-12-23T22:18:23.774Z,99441.97
2023-12-23T22:18:57.388Z,99448.84
2023-12-23T22:19:33.280Z,99450.53
2023-12-23T22:20:08.844Z,99450.59
2023-12-23T22:20:42.677Z,99454.00
2023-12-23T22:21:16.791Z,99454.03
2023-12-23T22:21:53.189Z,99452.34
2023-12-23T22:22:26.697Z,99456.59
2023-12-23T22:23:00.454Z,99457.41
2023-12-23T22:23:34.048Z,99458.31
2023-12-23T22:24:08.009Z,99458.34
2023-12-23T22:24:41.495Z,99449.69
2023-12-23T22:25:19.069Z,99445.38
2023-12-23T22:25:52.712Z,99450.53
2023-12-23T22:26:26.097Z,99448.78
2023-12-23T22:26:59.397Z,99454.81
2023-12-23T22:27:34.768Z,99452.28
2023-12-23T22:28:08.190Z,99445.34
2023-12-23T22:28:43.658Z,99450.53
2023-12-23T22:29:22.578Z,99455.69
2023-12-23T22:29:58.633Z,99455.75
2023-12-23T22:30:32.099Z,99448.84
2023-12-23T22:31:05.803Z,99455.75
2023-12-23T22:31:39.365Z,99451.44
2023-12-23T22:32:14.813Z,99443.56
2023-12-23T22:32:51.677Z,99451.38
2023-12-23T22:33:28.244Z,99453.13
2023-12-23T22:34:04.498Z,99449.59
2023-12-23T22:34:38.160Z,99454.75
2023-12-23T22:35:14.700Z,99452.13
2023-12-23T22:35:48.150Z,99454.03
2023-12-23T22:36:23.179Z,99453.13
2023-12-23T22:36:57.254Z,99454.00
2023-12-23T22:37:30.911Z,99453.16
2023-12-23T22:38:07.324Z,99455.75
2023-12-23T22:38:40.817Z,99456.59
2023-12-23T22:39:14.680Z,99457.41
2023-12-23T22:39:51.504Z,99460.91
2023-12-23T22:40:25.527Z,99450.53
2023-12-23T22:41:05.112Z,99455.75
2023-12-23T22:41:39.237Z,99453.16
2023-12-23T22:42:12.753Z,99453.13
2023-12-23T22:42:46.188Z,99455.69
2023-12-23T22:43:21.917Z,99448.84
2023-12-23T22:43:55.839Z,99448.78
2023-12-23T22:44:29.206Z,99443.56
2023-12-23T22:45:03.323Z,99450.50
2023-12-23T22:45:36.734Z,99453.19
2023-12-23T22:46:10.253Z,99445.41
2023-12-23T22:46:43.826Z,99450.63
2023-12-23T22:47:17.129Z,99451.47
2023-12-23T22:47:50.611Z,99454.13
2023-12-23T22:48:24.220Z,99447.28
2023-12-23T22:48:58.104Z,99455.84
2023-12-23T22:49:31.479Z,99457.53
2023-12-23T22:50:05.555Z,99458.44
2023-12-23T22:50:39.104Z,99457.59
2023-12-23T22:51:12.891Z,99464.47
2023-12-23T22:51:46.596Z,99459.25
2023-12-23T22:52:23.974Z,99460.97
2023-12-23T22:52:57.915Z,99466.16
2023-12-23T22:53:31.878Z,99460.09
2023-12-23T22:54:08.137Z,99457.53
2023-12-23T22:54:45.333Z,99455.84
2023-12-23T22:55:18.741Z,99461.03
2023-12-23T22:55:52.341Z,99458.50
2023-12-23T22:56:26.125Z,99461.09
2023-12-23T22:57:01.064Z,99454.13
2023-12-23T22:57:35.250Z,99456.84
2023-12-23T22:58:09.748Z,99461.16
2023-12-23T22:58:43.384Z,99464.66
2023-12-23T22:59:17.135Z,99458.59
2023-12-23T22:59:54.368Z,99469.91
2023-12-23T23:00:33.441Z,99470.81
2023-12-23T23:01:07.235Z,99466.44
2023-12-23T23:01:40.892Z,99467.25
2023-12-23T23:02:17.901Z,99476.72
2023-12-23T23:02:52.624Z,99476.72
2023-12-23T23:03:27.807Z,99475.88
2023-12-23T23:04:02.040Z,99466.28
2023-12-23T23:04:35.533Z,99464.59
2023-12-23T23:05:10.066Z,99462.94
